createdAt,value
2023-01-13T00:01:29.275Z,7.25
2023-01-13T00:03:58.740Z,6.55
2023-01-13T00:06:26.771Z,7.28
2023-01-13T00:08:54.695Z,7.60
2023-01-13T00:11:22.846Z,6.25
2023-01-13T00:13:50.215Z,6.85
2023-01-13T00:16:18.872Z,6.97
2023-01-13T00:18:47.798Z,6.78
2023-01-13T00:21:18.979Z,6.55
2023-01-13T00:23:47.383Z,7.40
2023-01-13T00:26:21.930Z,6.90
2023-01-13T00:28:49.896Z,7.18
2023-01-13T00:31:21.288Z,7.35
2023-01-13T00:33:49.374Z,7.43
2023-01-13T00:36:18.790Z,7.38
2023-01-13T00:38:47.847Z,7.45
2023-01-13T00:41:26.019Z,7.55
2023-01-13T00:43:53.712Z,7.93
2023-01-13T00:46:22.986Z,8.20
2023-01-13T00:48:51.731Z,6.95
2023-01-13T00:51:21.795Z,7.47
2023-01-13T00:53:51.560Z,7.32
2023-01-13T00:56:38.554Z,7.07
2023-01-13T00:59:10.675Z,7.60
2023-01-13T01:01:38.306Z,7.03
2023-01-13T01:04:05.864Z,6.90
2023-01-13T01:06:33.252Z,7.35
2023-01-13T01:09:00.466Z,7.40
2023-01-13T01:11:30.744Z,6.95
2023-01-13T01:14:01.298Z,6.97
2023-01-13T01:16:31.127Z,7.22
2023-01-13T01:18:59.376Z,6.70
2023-01-13T01:21:28.284Z,6.72
2023-01-13T01:23:58.299Z,7.15
2023-01-13T01:26:29.926Z,7.68
2023-01-13T01:28:58.094Z,8.38
2023-01-13T01:31:29.279Z,7.43
2023-01-13T01:33:56.713Z,7.22
2023-01-13T01:36:26.909Z,7.28
2023-01-13T01:38:56.353Z,7.68
2023-01-13T01:41:28.113Z,6.95
2023-01-13T01:44:10.408Z,6.95
2023-01-13T01:46:44.104Z,7.13
2023-01-13T01:49:31.574Z,8.40
2023-01-13T01:52:42.095Z,7.18
2023-01-13T01:55:37.144Z,6.47
2023-01-13T01:58:11.275Z,6.22
2023-01-13T02:00:38.803Z,6.20
2023-01-13T02:03:08.164Z,5.43
2023-01-13T02:05:36.045Z,6.90
2023-01-13T02:08:04.539Z,6.63
2023-01-13T02:10:32.713Z,6.93
2023-01-13T02:13:05.655Z,6.90
2023-01-13T02:16:17.387Z,6.22
2023-01-13T02:19:11.241Z,6.57
2023-01-13T02:22:29.327Z,6.63
2023-01-13T02:25:45.875Z,5.70
2023-01-13T02:28:19.370Z,5.37
2023-01-13T02:31:19.586Z,6.90
2023-01-13T02:34:07.518Z,7.75
2023-01-13T02:36:57.168Z,7.75
2023-01-13T02:39:43.453Z,6.20
2023-01-13T02:45:11.943Z,6.05
2023-01-13T02:47:44.181Z,5.75
2023-01-13T02:50:19.315Z,5.65
2023-01-13T02:52:57.963Z,6.45
2023-01-13T02:55:44.376Z,5.07
2023-01-13T02:58:21.357Z,6.95
2023-01-13T03:00:51.792Z,5.50
2023-01-13T03:03:19.418Z,5.63
2023-01-13T03:05:52.218Z,5.50
2023-01-13T03:08:31.456Z,6.10
2023-01-13T03:11:09.434Z,5.28
2023-01-13T03:14:27.420Z,5.03
2023-01-13T03:17:13.067Z,6.03
2023-01-13T03:20:42.393Z,6.10
2023-01-13T03:23:31.916Z,5.85
2023-01-13T03:26:35.070Z,5.55
2023-01-13T03:29:36.368Z,5.00
2023-01-13T03:32:20.956Z,5.55
2023-01-13T03:34:55.368Z,5.40
2023-01-13T03:37:30.889Z,5.70
2023-01-13T03:40:03.956Z,5.35
2023-01-13T03:42:35.183Z,5.32
2023-01-13T03:45:09.668Z,6.28
2023-01-13T03:47:55.696Z,5.88
2023-01-13T03:50:30.340Z,5.43
2023-01-13T03:53:15.209Z,6.38
2023-01-13T03:55:48.580Z,5.72
2023-01-13T03:58:31.155Z,5.30
2023-01-13T04:01:20.662Z,6.10
2023-01-13T04:04:09.557Z,5.75
2023-01-13T04:07:02.056Z,5.45
2023-01-13T04:09:46.104Z,5.65
2023-01-13T04:12:22.295Z,5.18
2023-01-13T04:14:49.970Z,5.53
2023-01-13T04:17:18.267Z,5.97
2023-01-13T04:19:45.357Z,5.15
2023-01-13T04:22:12.789Z,5.47
2023-01-13T04:24:39.985Z,4.63
2023-01-13T04:27:09.868Z,5.30
2023-01-13T04:29:36.941Z,4.97
2023-01-13T04:32:04.089Z,5.18
2023-01-13T04:34:31.297Z,5.80
2023-01-13T04:37:02.139Z,6.43
2023-01-13T04:39:29.322Z,4.68
2023-01-13T04:41:59.647Z,4.97
2023-01-13T04:44:27.489Z,4.90
2023-01-13T04:46:54.769Z,5.57
2023-01-13T04:49:21.898Z,4.88
2023-01-13T04:51:49.107Z,5.25
2023-01-13T04:54:16.327Z,5.10
2023-01-13T04:56:43.880Z,4.53
2023-01-13T04:59:12.684Z,5.00
2023-01-13T05:01:40.694Z,4.97
2023-01-13T05:04:08.805Z,4.95
2023-01-13T05:06:35.938Z,5.35
2023-01-13T05:09:03.572Z,5.18
2023-01-13T05:11:49.478Z,5.80
2023-01-13T05:14:35.269Z,5.60
2023-01-13T05:17:03.642Z,5.55
2023-01-13T05:19:34.852Z,5.20
2023-01-13T05:22:21.722Z,6.10
2023-01-13T05:25:07.620Z,6.78
2023-01-13T05:27:35.348Z,6.57
2023-01-13T05:30:02.626Z,6.47
2023-01-13T05:32:29.907Z,5.95
2023-01-13T05:34:57.507Z,6.07
2023-01-13T05:37:26.850Z,6.28
2023-01-13T05:40:12.965Z,6.47
2023-01-13T05:42:58.574Z,7.15
2023-01-13T05:45:26.195Z,7.57
2023-01-13T05:47:53.489Z,7.80
2023-01-13T05:50:20.614Z,7.60
2023-01-13T05:52:47.819Z,7.67
2023-01-13T05:55:15.065Z,9.80
2023-01-13T05:57:42.421Z,8.57
2023-01-13T06:00:10.391Z,7.53
2023-01-13T06:02:37.538Z,7.88
2023-01-13T06:05:05.112Z,7.78
2023-01-13T06:07:35.023Z,8.65
2023-01-13T06:10:02.179Z,7.35
2023-01-13T06:12:30.188Z,7.83
2023-01-13T06:14:57.406Z,8.23
2023-01-13T06:17:24.639Z,7.63
2023-01-13T06:19:51.731Z,8.15
2023-01-13T06:22:28.406Z,7.75
2023-01-13T06:24:55.633Z,7.70
2023-01-13T06:27:23.232Z,7.93
2023-01-13T06:29:50.660Z,8.27
2023-01-13T06:32:26.911Z,8.07
2023-01-13T06:35:02.741Z,8.38
2023-01-13T06:37:33.070Z,8.82
2023-01-13T06:40:03.112Z,7.63
2023-01-13T06:42:53.480Z,8.60
2023-01-13T06:45:22.234Z,7.22
2023-01-13T06:47:49.882Z,7.53
2023-01-13T06:50:18.777Z,7.78
2023-01-13T06:52:46.071Z,7.90
2023-01-13T06:55:13.376Z,7.47
2023-01-13T06:57:53.439Z,8.73
2023-01-13T07:00:21.909Z,8.73
2023-01-13T07:02:49.602Z,7.72
2023-01-13T07:05:19.480Z,8.02
2023-01-13T07:07:46.683Z,7.50
2023-01-13T07:10:22.470Z,8.70
2023-01-13T07:13:08.953Z,8.07
2023-01-13T07:15:38.763Z,8.90
2023-01-13T07:18:15.486Z,8.68
2023-01-13T07:20:42.622Z,9.10
2023-01-13T07:23:09.739Z,9.27
2023-01-13T07:25:36.851Z,9.68
2023-01-13T07:28:03.934Z,10.05
2023-01-13T07:30:31.119Z,9.55
2023-01-13T07:32:58.254Z,10.07
2023-01-13T07:35:25.307Z,9.50
2023-01-13T07:37:52.487Z,9.77
2023-01-13T07:40:22.618Z,10.70
2023-01-13T07:43:08.627Z,10.25
2023-01-13T07:45:35.806Z,10.00
2023-01-13T07:48:02.983Z,9.88
2023-01-13T07:50:30.252Z,9.82
2023-01-13T07:53:00.494Z,10.27
2023-01-13T07:55:31.015Z,10.85
2023-01-13T07:57:58.338Z,10.43
2023-01-13T08:00:25.497Z,10.88
2023-01-13T08:02:52.856Z,10.88
2023-01-13T08:05:20.081Z,10.90
2023-01-13T08:07:47.226Z,10.87
2023-01-13T08:10:14.436Z,12.18
2023-01-13T08:13:02.967Z,11.50
2023-01-13T08:15:32.395Z,11.05
2023-01-13T08:17:59.785Z,10.65
2023-01-13T08:20:27.399Z,11.25
2023-01-13T08:22:58.840Z,10.88
2023-01-13T08:25:28.593Z,11.38
2023-01-13T08:27:57.016Z,11.48
2023-01-13T08:30:24.305Z,11.68
2023-01-13T08:32:51.557Z,10.55
2023-01-13T08:35:19.865Z,11.43
2023-01-13T08:37:48.447Z,11.23
2023-01-13T08:40:17.741Z,10.98
2023-01-13T08:42:47.642Z,11.02
2023-01-13T08:45:15.843Z,10.50
2023-01-13T08:47:42.994Z,10.45
2023-01-13T08:50:13.496Z,10.60
2023-01-13T08:52:41.560Z,10.45
2023-01-13T08:55:10.083Z,11.20
2023-01-13T08:57:38.077Z,11.40
2023-01-13T09:00:07.448Z,10.77
2023-01-13T09:02:38.764Z,10.57
2023-01-13T09:05:08.617Z,10.50
2023-01-13T09:07:37.846Z,10.98
2023-01-13T09:10:08.050Z,11.30
2023-01-13T09:12:57.251Z,10.07
2023-01-13T09:15:24.369Z,9.98
2023-01-13T09:17:51.743Z,9.48
2023-01-13T09:20:19.120Z,10.10
2023-01-13T09:22:46.359Z,10.15
2023-01-13T09:25:14.468Z,10.90
2023-01-13T09:27:41.784Z,10.95
2023-01-13T09:30:10.182Z,11.82
2023-01-13T09:32:38.541Z,11.00
2023-01-13T09:35:07.900Z,11.05
2023-01-13T09:37:41.294Z,11.43
2023-01-13T09:40:22.647Z,10.98
2023-01-13T09:43:16.305Z,11.40
2023-01-13T09:46:32.584Z,11.35
2023-01-13T09:49:03.686Z,9.98
2023-01-13T09:51:41.686Z,10.50
2023-01-13T09:54:45.117Z,11.60
2023-01-13T09:57:15.196Z,10.55
2023-01-13T09:59:43.003Z,10.60
2023-01-13T10:02:21.381Z,11.00
2023-01-13T10:05:32.296Z,10.13
2023-01-13T10:08:24.181Z,9.25
2023-01-13T10:10:56.348Z,9.68
2023-01-13T10:13:31.052Z,10.45
2023-01-13T10:16:11.644Z,9.57
2023-01-13T10:19:03.108Z,9.85
2023-01-13T10:22:25.933Z,9.32
2023-01-13T10:25:21.267Z,10.60
2023-01-13T10:27:52.838Z,9.85
2023-01-13T10:30:23.095Z,11.30
2023-01-13T10:32:59.865Z,9.98
2023-01-13T10:35:55.049Z,10.85
2023-01-13T10:38:40.882Z,10.45
2023-01-13T10:41:18.885Z,9.90
2023-01-13T10:43:51.922Z,10.45
2023-01-13T10:46:20.786Z,9.50
2023-01-13T10:48:56.646Z,9.00
2023-01-13T10:51:28.317Z,9.40
2023-01-13T10:54:13.420Z,9.30
2023-01-13T10:56:44.971Z,10.50
2023-01-13T10:59:38.694Z,8.95
2023-01-13T11:02:24.194Z,8.70
2023-01-13T11:07:52.225Z,8.43
2023-01-13T11:10:24.336Z,9.25
2023-01-13T11:13:11.625Z,8.40
2023-01-13T11:16:07.190Z,8.13
2023-01-13T11:19:02.093Z,9.00
2023-01-13T11:21:43.481Z,8.77
2023-01-13T11:24:37.331Z,8.00
2023-01-13T11:27:18.285Z,8.23
2023-01-13T11:30:09.867Z,9.38
2023-01-13T11:33:10.321Z,9.43
2023-01-13T11:36:18.949Z,8.10
2023-01-13T11:39:22.352Z,9.68
2023-01-13T11:42:18.347Z,8.80
2023-01-13T11:44:58.851Z,8.18
2023-01-13T11:47:28.009Z,8.55
2023-01-13T11:49:55.463Z,8.52
2023-01-13T11:52:45.870Z,8.02
2023-01-13T11:55:28.897Z,8.63
2023-01-13T11:58:05.463Z,8.75
2023-01-13T12:01:07.442Z,8.25
2023-01-13T12:04:13.947Z,7.97
2023-01-13T12:06:43.550Z,8.15
2023-01-13T12:09:16.501Z,8.60
2023-01-13T12:12:19.945Z,8.32
2023-01-13T12:15:21.138Z,8.18
2023-01-13T12:18:09.355Z,7.53
2023-01-13T12:21:01.583Z,8.00
2023-01-13T12:23:38.796Z,7.95
2023-01-13T12:26:12.931Z,8.07
2023-01-13T12:28:54.728Z,7.30
2023-01-13T12:31:23.592Z,8.23
2023-01-13T12:34:27.506Z,8.23
2023-01-13T12:37:50.153Z,8.23
2023-01-13T12:41:11.530Z,8.02
2023-01-13T12:44:02.619Z,8.27
2023-01-13T12:46:32.819Z,7.88
2023-01-13T12:49:06.821Z,7.80
2023-01-13T12:51:37.760Z,8.02
2023-01-13T12:54:43.590Z,7.45
2023-01-13T12:57:16.844Z,7.25
2023-01-13T13:00:06.725Z,7.00
2023-01-13T13:02:36.923Z,6.60
2023-01-13T13:05:24.974Z,7.18
2023-01-13T13:08:32.948Z,7.63
2023-01-13T13:11:34.945Z,7.10
2023-01-13T13:14:13.947Z,7.13
2023-01-13T13:16:51.779Z,7.10
2023-01-13T13:19:18.860Z,6.18
2023-01-13T13:22:18.001Z,5.55
2023-01-13T13:24:51.184Z,6.00
2023-01-13T13:28:16.249Z,6.80
2023-01-13T13:30:54.948Z,6.40
2023-01-13T13:33:50.492Z,7.32
2023-01-13T13:36:57.188Z,6.47
2023-01-13T13:39:49.783Z,6.70
2023-01-13T13:42:49.247Z,6.28
2023-01-13T13:45:42.841Z,6.00
2023-01-13T13:48:39.274Z,5.88
2023-01-13T13:52:00.386Z,6.85
2023-01-13T13:54:28.037Z,6.72
2023-01-13T13:56:55.379Z,7.63
2023-01-13T13:59:30.692Z,6.15
2023-01-13T14:02:02.146Z,6.22
2023-01-13T14:04:37.825Z,7.07
2023-01-13T14:07:21.307Z,6.97
2023-01-13T14:09:54.346Z,6.25
2023-01-13T14:12:25.367Z,7.95
2023-01-13T14:14:55.978Z,7.07
2023-01-13T14:17:31.158Z,6.95
2023-01-13T14:20:14.644Z,7.72
2023-01-13T14:22:52.328Z,7.88
2023-01-13T14:25:33.345Z,7.25
2023-01-13T14:28:29.512Z,7.53
2023-01-13T14:30:57.519Z,7.53
2023-01-13T14:33:44.030Z,7.50
2023-01-13T14:36:25.350Z,9.27
2023-01-13T14:39:04.395Z,7.97
2023-01-13T14:41:36.058Z,8.25
2023-01-13T14:44:34.989Z,7.20
2023-01-13T14:47:18.168Z,7.40
2023-01-13T14:50:16.400Z,8.07
2023-01-13T14:52:56.972Z,8.60
2023-01-13T14:55:34.465Z,8.52
2023-01-13T14:58:28.594Z,10.07
2023-01-13T15:01:28.068Z,8.88
2023-01-13T15:04:15.195Z,9.68
2023-01-13T15:06:49.529Z,8.43
2023-01-13T15:09:27.264Z,9.02
2023-01-13T15:11:56.346Z,9.48
2023-01-13T15:14:31.295Z,8.10
2023-01-13T15:16:58.432Z,8.80
2023-01-13T15:19:25.604Z,9.38
2023-01-13T15:21:52.736Z,10.73
2023-01-13T15:24:19.967Z,9.65
2023-01-13T15:26:47.169Z,9.98
2023-01-13T15:29:17.778Z,10.10
2023-01-13T15:31:44.908Z,9.95
2023-01-13T15:34:12.117Z,11.10
2023-01-13T15:36:40.330Z,12.35
2023-01-13T15:39:12.488Z,10.75
2023-01-13T15:41:58.501Z,9.77
2023-01-13T15:44:43.962Z,10.07
2023-01-13T15:47:11.552Z,9.18
2023-01-13T15:49:42.960Z,9.18
2023-01-13T15:52:28.289Z,8.63
2023-01-13T15:54:55.665Z,8.70
2023-01-13T15:57:29.435Z,8.65
2023-01-13T16:00:00.743Z,9.07
2023-01-13T16:02:31.266Z,9.20
2023-01-13T16:04:58.468Z,9.77
2023-01-13T16:07:26.546Z,9.73
2023-01-13T16:09:54.327Z,9.13
2023-01-13T16:12:21.600Z,9.88
2023-01-13T16:14:48.751Z,11.45
2023-01-13T16:17:23.042Z,9.88
2023-01-13T16:19:51.182Z,8.65
2023-01-13T16:22:18.938Z,8.57
2023-01-13T16:24:46.209Z,8.48
2023-01-13T16:27:19.064Z,9.15
2023-01-13T16:29:47.571Z,8.63
2023-01-13T16:32:15.193Z,9.65
2023-01-13T16:34:42.511Z,8.45
2023-01-13T16:37:29.980Z,8.68
2023-01-13T16:39:57.141Z,9.95
2023-01-13T16:42:24.352Z,9.30
2023-01-13T16:44:52.992Z,10.00
2023-01-13T16:47:20.369Z,9.15
2023-01-13T16:49:47.608Z,9.48
2023-01-13T16:52:14.947Z,9.75
2023-01-13T16:54:42.255Z,10.25
2023-01-13T16:57:13.775Z,9.77
2023-01-13T16:59:41.062Z,9.63
2023-01-13T17:02:19.652Z,9.85
2023-01-13T17:04:48.218Z,9.65
2023-01-13T17:07:18.108Z,10.68
2023-01-13T17:09:46.201Z,11.40
2023-01-13T17:12:13.819Z,10.57
2023-01-13T17:14:43.374Z,9.90
2023-01-13T17:17:26.539Z,10.48
2023-01-13T17:19:54.560Z,10.60
2023-01-13T17:22:23.099Z,11.52
2023-01-13T17:24:50.776Z,9.80
2023-01-13T17:27:18.859Z,9.98
2023-01-13T17:29:46.434Z,11.13
2023-01-13T17:32:18.988Z,11.15
2023-01-13T17:34:47.550Z,11.43
2023-01-13T17:37:16.063Z,11.27
2023-01-13T17:39:46.732Z,11.27
2023-01-13T17:42:16.176Z,11.68
2023-01-13T17:44:43.966Z,11.60
2023-01-13T17:47:12.436Z,11.82
2023-01-13T17:49:40.292Z,12.73
2023-01-13T17:52:07.714Z,11.15
2023-01-13T17:54:35.982Z,12.90
2023-01-13T17:57:03.913Z,11.93
2023-01-13T17:59:35.586Z,12.32
2023-01-13T18:02:03.183Z,13.05
2023-01-13T18:04:31.880Z,13.52
2023-01-13T18:06:59.830Z,13.23
2023-01-13T18:09:27.523Z,13.20
2023-01-13T18:11:59.126Z,13.02
2023-01-13T18:14:28.604Z,13.63
2023-01-13T18:16:56.125Z,12.43
2023-01-13T18:19:42.457Z,13.25
2023-01-13T18:22:32.478Z,13.75
2023-01-13T18:25:19.594Z,13.65
2023-01-13T18:27:48.409Z,13.65
2023-01-13T18:30:17.858Z,13.75
2023-01-13T18:32:45.455Z,14.95
2023-01-13T18:35:13.558Z,14.02
2023-01-13T18:37:42.730Z,16.17
2023-01-13T18:40:14.766Z,15.57
2023-01-13T18:42:51.708Z,16.30
2023-01-13T18:45:32.465Z,19.08
2023-01-13T18:48:02.924Z,19.65
2023-01-13T18:50:32.056Z,18.05
2023-01-13T18:52:59.848Z,18.55
2023-01-13T18:55:28.852Z,19.02
2023-01-13T18:57:58.435Z,19.45
2023-01-13T19:00:27.783Z,18.92
2023-01-13T19:05:36.017Z,20.55
2023-01-13T19:08:04.576Z,20.10
2023-01-13T19:10:32.783Z,19.65
2023-01-13T19:13:02.067Z,18.83
2023-01-13T19:15:31.094Z,17.38
2023-01-13T19:17:59.142Z,16.75
2023-01-13T19:20:26.969Z,16.58
2023-01-13T19:22:55.336Z,16.30
2023-01-13T19:25:29.683Z,16.75
2023-01-13T19:27:59.260Z,16.30
2023-01-13T19:30:27.703Z,16.08
2023-01-13T19:32:57.388Z,15.68
2023-01-13T19:35:25.077Z,17.50
2023-01-13T19:37:52.898Z,17.90
2023-01-13T19:40:20.880Z,17.00
2023-01-13T19:43:07.133Z,16.77
2023-01-13T19:48:06.174Z,18.77
2023-01-13T19:50:41.415Z,18.08
2023-01-13T19:53:17.131Z,18.52
2023-01-13T19:55:48.957Z,15.60
2023-01-13T19:58:25.680Z,15.07
2023-01-13T20:00:55.184Z,15.25
2023-01-13T20:03:31.387Z,13.52
2023-01-13T20:06:10.198Z,10.95
2023-01-13T20:08:38.132Z,9.60
2023-01-13T20:11:28.576Z,7.28
2023-01-13T20:13:58.031Z,6.32
2023-01-13T20:16:27.187Z,4.72
2023-01-13T20:18:56.724Z,5.00
2023-01-13T20:21:25.012Z,2.40
2023-01-13T20:23:54.422Z,2.38
2023-01-13T20:26:26.369Z,1.90
2023-01-13T20:28:54.342Z,1.38
2023-01-13T20:31:22.907Z,1.10
2023-01-13T20:33:51.923Z,1.00
2023-01-13T20:36:31.438Z,1.10
2023-01-13T20:39:01.698Z,1.05
2023-01-13T20:41:48.609Z,1.15
2023-01-13T20:44:16.499Z,1.30
2023-01-13T20:46:45.606Z,1.00
2023-01-13T20:49:15.855Z,1.13
2023-01-13T20:51:44.503Z,1.38
2023-01-13T20:54:12.208Z,1.35
2023-01-13T20:56:41.218Z,1.10
2023-01-13T20:59:09.667Z,1.58
2023-01-13T21:01:37.944Z,1.10
2023-01-13T21:04:07.112Z,1.02
2023-01-13T21:06:35.581Z,1.33
2023-01-13T21:09:04.043Z,1.13
2023-01-13T21:11:50.766Z,1.00
2023-01-13T21:14:43.277Z,1.23
2023-01-13T21:17:32.669Z,1.50
2023-01-13T21:20:04.130Z,1.42
2023-01-13T21:22:48.654Z,0.90
2023-01-13T21:25:17.892Z,1.00
2023-01-13T21:27:45.412Z,1.00
2023-01-13T21:30:15.372Z,1.00
2023-01-13T21:32:47.338Z,1.10
2023-01-13T21:35:15.195Z,1.27
2023-01-13T21:37:43.709Z,0.98
2023-01-13T21:40:13.975Z,1.17
2023-01-13T21:43:00.173Z,1.20
2023-01-13T21:45:46.363Z,0.93
2023-01-13T21:50:41.983Z,1.00
2023-01-13T21:53:09.656Z,1.27
2023-01-13T21:55:38.116Z,1.30
2023-01-13T21:58:13.456Z,1.27
2023-01-13T22:00:44.890Z,1.30
2023-01-13T22:03:14.745Z,1.30
2023-01-13T22:05:42.401Z,1.00
2023-01-13T22:08:13.676Z,1.02
2023-01-13T22:10:57.624Z,1.20
2023-01-13T22:13:44.736Z,1.13
2023-01-13T22:16:12.139Z,1.40
2023-01-13T22:18:42.464Z,0.98
2023-01-13T22:21:10.981Z,1.00
2023-01-13T22:23:38.253Z,0.90
2023-01-13T22:26:07.390Z,1.20
2023-01-13T22:28:40.784Z,1.08
2023-01-13T22:31:17.535Z,1.00
2023-01-13T22:33:48.348Z,1.30
2023-01-13T22:36:19.042Z,1.02
2023-01-13T22:38:46.670Z,1.00
2023-01-13T22:41:17.161Z,1.15
2023-01-13T22:43:44.241Z,1.42
2023-01-13T22:46:13.605Z,1.20
2023-01-13T22:48:41.539Z,1.15
2023-01-13T22:51:18.756Z,1.33
2023-01-13T22:53:46.049Z,1.20
2023-01-13T22:56:19.624Z,1.30
2023-01-13T22:58:46.901Z,1.10
2023-01-13T23:01:17.359Z,1.25
2023-01-13T23:03:47.856Z,1.20
2023-01-13T23:06:17.605Z,1.40
2023-01-13T23:08:45.597Z,1.08
2023-01-13T23:11:15.771Z,0.90
2023-01-13T23:13:43.511Z,1.20
2023-01-13T23:16:14.947Z,1.27
2023-01-13T23:18:48.576Z,1.52
2023-01-13T23:21:21.343Z,1.38
2023-01-13T23:23:48.958Z,1.75
2023-01-13T23:26:17.529Z,1.30
2023-01-13T23:28:45.268Z,1.55
2023-01-13T23:31:21.533Z,1.65
2023-01-13T23:33:49.370Z,1.17
2023-01-13T23:36:20.991Z,1.35
2023-01-13T23:38:48.585Z,1.25
2023-01-13T23:41:20.084Z,1.33
2023-01-13T23:43:57.490Z,1.17
2023-01-13T23:46:25.530Z,1.30
2023-01-13T23:48:53.026Z,1.35
2023-01-13T23:51:23.276Z,1.10
2023-01-13T23:53:51.232Z,1.23
2023-01-13T23:56:25.832Z,1.35
2023-01-13T23:58:53.305Z,1.10
